Linda — OJML — position and weather

sailwx.info

Track history (hours):
 
Tides and Currents Weather Stations Pressure Air Temp Water Temp Dewpoint Dewpoint Depression Visibility Wind Speed Wind Dir Waves Ship Positions

Linda

Last reported at 2015-Mar-28 02:30 UTC. Time now 2015-Mar-29 12:27 UTC.
Position N 55°47' E 015°58'.

Length 141 m; draft 7.3 m.

Type: Ship (hazmat cat A). MMSI: 230984000.

Date/timePositionNaut miles runAvg speedWind from/ knotsBaromVisibWave heightAir tempDewpointWater temp
2015-Mar-28 02:30N 55°47' E 015°58'1613.2
2015-Mar-28 01:18N 55°40' E 015°32'1013.0
2015-Mar-28 00:33N 55°35' E 015°18'1313.1
2015-Mar-27 23:33N 55°28' E 014°58'1313.3
2015-Mar-27 22:33N 55°22' E 014°37'1413.3
2015-Mar-27 21:31N 55°12' E 014°20'5012.5
2015-Mar-27 17:33N 55°15' E 012°54'1110.9
2015-Mar-27 16:33N 55°22' E 012°39'1313.0
2015-Mar-27 15:33N 55°35' E 012°42'1212.0
2015-Mar-27 14:33N 55°47' E 012°42'1312.6
2015-Mar-27 13:33N 55°59' E 012°41'1312.5
2015-Mar-27 12:33N 56°09' E 012°25'3112.5
2015-Mar-27 10:06N 56°35' E 011°57'713.2
2015-Mar-27 09:33N 56°42' E 011°54'1313.2
2015-Mar-27 08:33N 56°54' E 011°46'1312.9
2015-Mar-27 07:33N 57°06' E 011°38'1312.7
2015-Mar-27 06:33N 57°18' E 011°30'1212.2
2015-Mar-27 05:33N 57°29' E 011°20'1212.4
2015-Mar-27 04:33N 57°38' E 011°03'1312.8
2015-Mar-27 03:33N 57°46' E 010°45'1412.6
2015-Mar-27 02:26N 57°44' E 010°19'4413.8
2015-Mar-26 23:15N 57°22' E 009°08'3814.1
2015-Mar-26 20:32N 56°59' E 008°13'13214.6
2015-Mar-26 11:32N 55°07' E 006°06'1414.6
2015-Mar-26 10:33N 54°55' E 005°53'1514.7
2015-Mar-26 09:33N 54°43' E 005°39'1514.6
2015-Mar-26 08:32N 54°30' E 005°25'1514.9
2015-Mar-26 07:33N 54°18' E 005°11'1615.9
2015-Mar-26 06:33N 54°05' E 004°58'1616.0
2015-Mar-26 05:33N 53°49' E 004°53'1615.7
2015-Mar-26 04:33N 53°34' E 004°47'1515.3
2015-Mar-26 03:33N 53°19' E 004°37'1515.0
2015-Mar-26 02:33N 53°06' E 004°26'1515.1
2015-Mar-26 01:33N 52°52' E 004°15'1514.6
2015-Mar-26 00:33N 52°40' E 004°03'1414.3
2015-Mar-25 23:33N 52°27' E 003°53'1414.4
2015-Mar-25 22:33N 52°12' E 003°53'1211.8
2015-Mar-25 21:33N 52°01' E 003°59'1515.1
2015-Mar-25 20:33N 51°54' E 004°20'3 3.2
2015-Mar-25 19:33N 51°53' E 004°25'0 0.0
2015-Mar-25 18:32N 51°53' E 004°25'0 0.0
2015-Mar-25 17:32N 51°53' E 004°25'0 0.0
2015-Mar-25 16:32N 51°53' E 004°25'0 0.0
2015-Mar-25 15:32N 51°53' E 004°25'0 0.0
2015-Mar-25 14:32N 51°53' E 004°25'0 0.0
2015-Mar-25 13:32N 51°53' E 004°25'0 0.0
2015-Mar-25 12:32N 51°53' E 004°25'0 0.0
2015-Mar-25 11:32N 51°53' E 004°25'0 0.0
2015-Mar-25 10:32N 51°53' E 004°25'0 0.0
2015-Mar-25 09:32N 51°53' E 004°25'0 0.0
2015-Mar-25 08:32N 51°53' E 004°25'0 0.0
2015-Mar-25 07:32N 51°53' E 004°25'0 0.0
2015-Mar-25 06:32N 51°53' E 004°25'0 0.0
2015-Mar-25 05:32N 51°53' E 004°25'0 0.0
2015-Mar-25 04:32N 51°53' E 004°25'0 0.0
2015-Mar-25 03:32N 51°53' E 004°25'1 1.4
2015-Mar-25 02:34N 51°54' E 004°23'7 7.2
2015-Mar-25 01:34N 51°56' E 004°12'1515.1
2015-Mar-25 00:34N 52°00' E 003°49'1615.2
2015-Mar-24 23:31N 51°54' E 003°25'4715.7
2015-Mar-24 20:31N 51°44' E 002°11'1818.4
2015-Mar-24 19:33N 51°33' E 001°47'1716.9
2015-Mar-24 18:34N 51°28' E 001°22'1919.3
2015-Mar-24 17:33N 51°28' E 000°51'4 4.1
2015-Mar-24 16:31N 51°26' E 000°44'0 0.0
2015-Mar-24 15:31N 51°26' E 000°44'0 0.0
2015-Mar-24 14:31N 51°26' E 000°44'0 0.0
2015-Mar-24 13:31N 51°26' E 000°44'0 0.0
2015-Mar-24 12:31N 51°26' E 000°44'0 0.0
2015-Mar-24 11:31N 51°26' E 000°44'0 0.0
2015-Mar-24 10:31N 51°26' E 000°44'0 0.0
2015-Mar-24 09:31N 51°26' E 000°44'0 0.0
2015-Mar-24 08:31N 51°26' E 000°44'0 0.0
2015-Mar-24 07:31N 51°26' E 000°44'0 0.0
2015-Mar-24 06:31N 51°26' E 000°44'0 0.0
2015-Mar-24 05:31N 51°26' E 000°44'0 0.0
2015-Mar-24 04:28N 51°26' E 000°44'0 0.0
2015-Mar-24 03:31N 51°26' E 000°44'0 0.0
2015-Mar-24 02:31N 51°26' E 000°44'0 0.0
2015-Mar-24 01:31N 51°26' E 000°44'9 9.8
2015-Mar-24 00:33N 51°29' E 000°59'1818.4
2015-Mar-23 23:34N 51°27' E 001°28'1313.3
2015-Mar-23 22:33N 51°37' E 001°43'1817.9
2015-Mar-23 21:33N 51°55' E 001°45'2019.6
2015-Mar-23 20:33N 52°14' E 001°50'1918.8
2015-Mar-23 19:33N 52°33' E 001°54'1716.5
2015-Mar-23 18:34N 52°49' E 001°47'1717.3
2015-Mar-23 17:33N 53°02' E 001°29'1716.8
2015-Mar-23 16:33N 53°16' E 001°14'3316.7
2015-Mar-23 14:33N 53°44' E 000°44'1616.5
2015-Mar-23 13:33N 53°56' E 000°24'1616.3
2015-Mar-23 12:33N 54°08' E 000°06'1616.4
2015-Mar-23 11:33N 54°20' W 000°13'1716.7
2015-Mar-23 10:32N 54°33' W 000°34'1717.2
2015-Mar-23 09:33N 54°39' W 001°01'5 4.7
2015-Mar-23 08:24N 54°36' W 001°09'0 0.0
2015-Mar-23 07:27N 54°36' W 001°09'4 0.8
2015-Mar-23 02:22N 54°40' W 001°07'1214.9
2015-Mar-23 01:33N 54°46' W 000°49'1716.9
2015-Mar-23 00:33N 54°54' W 000°23'1716.8
2015-Mar-22 23:33N 55°02' E 000°03'38216.6
2015-Mar-22 00:29N 57°46' E 010°26'1616.9
2015-Mar-21 23:33N 57°46' E 010°56'1918.8
2015-Mar-21 22:33N 57°33' E 011°20'1817.7
2015-Mar-21 21:33N 57°17' E 011°33'1818.0
2015-Mar-21 20:33N 56°60' E 011°44'1817.6
2015-Mar-21 19:33N 56°43' E 011°56'1717.5
2015-Mar-21 18:33N 56°27' E 012°08'1818.2
2015-Mar-21 17:33N 56°12' E 012°27'1818.4
2015-Mar-21 16:33N 55°56' E 012°43'1717.3
2015-Mar-21 15:33N 55°39' E 012°42'1413.7
2015-Mar-21 14:33N 55°26' E 012°41'1313.4
2015-Mar-21 13:33N 55°16' E 012°57'1918.3
2015-Mar-21 12:31N 55°15' E 013°30'3417.0
2015-Mar-21 10:30N 55°21' E 014°29'1617.0
2015-Mar-21 09:33N 55°26' E 014°57'1917.7
2015-Mar-21 08:30N 55°28' E 015°29'288 6.9
2015-Mar-19 14:33N 58°59' E 021°30'10 9.8
2015-Mar-19 13:32N 59°09' E 021°38'5410.7
2015-Mar-19 08:31N 59°36' E 023°09'1212.3
2015-Mar-19 07:33N 59°39' E 023°31'1313.1
2015-Mar-19 06:33N 59°43' E 023°56'1313.1
2015-Mar-19 05:33N 59°47' E 024°21'1712.8
2015-Mar-19 04:14N 59°50' E 024°54'912.7
2015-Mar-19 03:33N 59°52' E 025°11'1312.7
2015-Mar-19 02:33N 59°54' E 025°36'1312.7
2015-Mar-19 01:33N 59°57' E 026°01'1312.7
2015-Mar-19 00:33N 60°00' E 026°25'1312.7
2015-Mar-18 23:33N 60°00' E 026°51'  
Track history (hours):
 
Tides and Currents Weather Stations Pressure Air Temp Water Temp Dewpoint Dewpoint Depression Visibility Wind Speed Wind Dir Waves Ship Positions

Linda

Last reported at 2015-Mar-28 02:30 UTC. Time now 2015-Mar-29 12:27 UTC.
Position N 55°47' E 015°58'.

Length 141 m; draft 7.3 m.

Type: Ship (hazmat cat A). MMSI: 230984000.

Date/timePositionNaut miles runAvg speedWind from/ knotsBaromVisibWave heightAir tempDewpointWater temp
2015-Mar-28 02:30N 55°47' E 015°58'1613.2
2015-Mar-28 01:18N 55°40' E 015°32'1013.0
2015-Mar-28 00:33N 55°35' E 015°18'1313.1
2015-Mar-27 23:33N 55°28' E 014°58'1313.3
2015-Mar-27 22:33N 55°22' E 014°37'1413.3
2015-Mar-27 21:31N 55°12' E 014°20'5012.5
2015-Mar-27 17:33N 55°15' E 012°54'1110.9
2015-Mar-27 16:33N 55°22' E 012°39'1313.0
2015-Mar-27 15:33N 55°35' E 012°42'1212.0
2015-Mar-27 14:33N 55°47' E 012°42'1312.6
2015-Mar-27 13:33N 55°59' E 012°41'1312.5
2015-Mar-27 12:33N 56°09' E 012°25'3112.5
2015-Mar-27 10:06N 56°35' E 011°57'713.2
2015-Mar-27 09:33N 56°42' E 011°54'1313.2
2015-Mar-27 08:33N 56°54' E 011°46'1312.9
2015-Mar-27 07:33N 57°06' E 011°38'1312.7
2015-Mar-27 06:33N 57°18' E 011°30'1212.2
2015-Mar-27 05:33N 57°29' E 011°20'1212.4
2015-Mar-27 04:33N 57°38' E 011°03'1312.8
2015-Mar-27 03:33N 57°46' E 010°45'1412.6
2015-Mar-27 02:26N 57°44' E 010°19'4413.8
2015-Mar-26 23:15N 57°22' E 009°08'3814.1
2015-Mar-26 20:32N 56°59' E 008°13'13214.6
2015-Mar-26 11:32N 55°07' E 006°06'1414.6
2015-Mar-26 10:33N 54°55' E 005°53'1514.7
2015-Mar-26 09:33N 54°43' E 005°39'1514.6
2015-Mar-26 08:32N 54°30' E 005°25'1514.9
2015-Mar-26 07:33N 54°18' E 005°11'1615.9
2015-Mar-26 06:33N 54°05' E 004°58'1616.0
2015-Mar-26 05:33N 53°49' E 004°53'1615.7
2015-Mar-26 04:33N 53°34' E 004°47'1515.3
2015-Mar-26 03:33N 53°19' E 004°37'1515.0
2015-Mar-26 02:33N 53°06' E 004°26'1515.1
2015-Mar-26 01:33N 52°52' E 004°15'1514.6
2015-Mar-26 00:33N 52°40' E 004°03'1414.3
2015-Mar-25 23:33N 52°27' E 003°53'1414.4
2015-Mar-25 22:33N 52°12' E 003°53'1211.8
2015-Mar-25 21:33N 52°01' E 003°59'1515.1
2015-Mar-25 20:33N 51°54' E 004°20'3 3.2
2015-Mar-25 19:33N 51°53' E 004°25'0 0.0
2015-Mar-25 18:32N 51°53' E 004°25'0 0.0
2015-Mar-25 17:32N 51°53' E 004°25'0 0.0
2015-Mar-25 16:32N 51°53' E 004°25'0 0.0
2015-Mar-25 15:32N 51°53' E 004°25'0 0.0
2015-Mar-25 14:32N 51°53' E 004°25'0 0.0
2015-Mar-25 13:32N 51°53' E 004°25'0 0.0
2015-Mar-25 12:32N 51°53' E 004°25'0 0.0
2015-Mar-25 11:32N 51°53' E 004°25'0 0.0
2015-Mar-25 10:32N 51°53' E 004°25'0 0.0
2015-Mar-25 09:32N 51°53' E 004°25'0 0.0
2015-Mar-25 08:32N 51°53' E 004°25'0 0.0
2015-Mar-25 07:32N 51°53' E 004°25'0 0.0
2015-Mar-25 06:32N 51°53' E 004°25'0 0.0
2015-Mar-25 05:32N 51°53' E 004°25'0 0.0
2015-Mar-25 04:32N 51°53' E 004°25'0 0.0
2015-Mar-25 03:32N 51°53' E 004°25'1 1.4
2015-Mar-25 02:34N 51°54' E 004°23'7 7.2
2015-Mar-25 01:34N 51°56' E 004°12'1515.1
2015-Mar-25 00:34N 52°00' E 003°49'1615.2
2015-Mar-24 23:31N 51°54' E 003°25'4715.7
2015-Mar-24 20:31N 51°44' E 002°11'1818.4
2015-Mar-24 19:33N 51°33' E 001°47'1716.9
2015-Mar-24 18:34N 51°28' E 001°22'1919.3
2015-Mar-24 17:33N 51°28' E 000°51'4 4.1
2015-Mar-24 16:31N 51°26' E 000°44'0 0.0
2015-Mar-24 15:31N 51°26' E 000°44'0 0.0
2015-Mar-24 14:31N 51°26' E 000°44'0 0.0
2015-Mar-24 13:31N 51°26' E 000°44'0 0.0
2015-Mar-24 12:31N 51°26' E 000°44'0 0.0
2015-Mar-24 11:31N 51°26' E 000°44'0 0.0
2015-Mar-24 10:31N 51°26' E 000°44'0 0.0
2015-Mar-24 09:31N 51°26' E 000°44'0 0.0
2015-Mar-24 08:31N 51°26' E 000°44'0 0.0
2015-Mar-24 07:31N 51°26' E 000°44'0 0.0
2015-Mar-24 06:31N 51°26' E 000°44'0 0.0
2015-Mar-24 05:31N 51°26' E 000°44'0 0.0
2015-Mar-24 04:28N 51°26' E 000°44'0 0.0
2015-Mar-24 03:31N 51°26' E 000°44'0 0.0
2015-Mar-24 02:31N 51°26' E 000°44'0 0.0
2015-Mar-24 01:31N 51°26' E 000°44'9 9.8
2015-Mar-24 00:33N 51°29' E 000°59'1818.4
2015-Mar-23 23:34N 51°27' E 001°28'1313.3
2015-Mar-23 22:33N 51°37' E 001°43'1817.9
2015-Mar-23 21:33N 51°55' E 001°45'2019.6
2015-Mar-23 20:33N 52°14' E 001°50'1918.8
2015-Mar-23 19:33N 52°33' E 001°54'1716.5
2015-Mar-23 18:34N 52°49' E 001°47'1717.3
2015-Mar-23 17:33N 53°02' E 001°29'1716.8
2015-Mar-23 16:33N 53°16' E 001°14'3316.7
2015-Mar-23 14:33N 53°44' E 000°44'1616.5
2015-Mar-23 13:33N 53°56' E 000°24'1616.3
2015-Mar-23 12:33N 54°08' E 000°06'1616.4
2015-Mar-23 11:33N 54°20' W 000°13'1716.7
2015-Mar-23 10:32N 54°33' W 000°34'1717.2
2015-Mar-23 09:33N 54°39' W 001°01'5 4.7
2015-Mar-23 08:24N 54°36' W 001°09'0 0.0
2015-Mar-23 07:27N 54°36' W 001°09'4 0.8
2015-Mar-23 02:22N 54°40' W 001°07'1214.9
2015-Mar-23 01:33N 54°46' W 000°49'1716.9
2015-Mar-23 00:33N 54°54' W 000°23'1716.8
2015-Mar-22 23:33N 55°02' E 000°03'38216.6
2015-Mar-22 00:29N 57°46' E 010°26'1616.9
2015-Mar-21 23:33N 57°46' E 010°56'1918.8
2015-Mar-21 22:33N 57°33' E 011°20'1817.7
2015-Mar-21 21:33N 57°17' E 011°33'1818.0
2015-Mar-21 20:33N 56°60' E 011°44'1817.6
2015-Mar-21 19:33N 56°43' E 011°56'1717.5
2015-Mar-21 18:33N 56°27' E 012°08'1818.2
2015-Mar-21 17:33N 56°12' E 012°27'1818.4
2015-Mar-21 16:33N 55°56' E 012°43'1717.3
2015-Mar-21 15:33N 55°39' E 012°42'1413.7
2015-Mar-21 14:33N 55°26' E 012°41'1313.4
2015-Mar-21 13:33N 55°16' E 012°57'1918.3
2015-Mar-21 12:31N 55°15' E 013°30'3417.0
2015-Mar-21 10:30N 55°21' E 014°29'1617.0
2015-Mar-21 09:33N 55°26' E 014°57'1917.7
2015-Mar-21 08:30N 55°28' E 015°29'288 6.9
2015-Mar-19 14:33N 58°59' E 021°30'10 9.8
2015-Mar-19 13:32N 59°09' E 021°38'5410.7
2015-Mar-19 08:31N 59°36' E 023°09'1212.3
2015-Mar-19 07:33N 59°39' E 023°31'1313.1
2015-Mar-19 06:33N 59°43' E 023°56'1313.1
2015-Mar-19 05:33N 59°47' E 024°21'1712.8
2015-Mar-19 04:14N 59°50' E 024°54'912.7
2015-Mar-19 03:33N 59°52' E 025°11'1312.7
2015-Mar-19 02:33N 59°54' E 025°36'1312.7
2015-Mar-19 01:33N 59°57' E 026°01'1312.7
2015-Mar-19 00:33N 60°00' E 026°25'1312.7
2015-Mar-18 23:33N 60°00' E 026°51'  

Dump ship's entire track history